createdAt,value
2023-04-27T00:02:09.460Z,67.90
2023-04-27T00:04:37.778Z,67.85
2023-04-27T00:07:05.638Z,67.67
2023-04-27T00:09:33.329Z,68.38
2023-04-27T00:12:01.489Z,69.17
2023-04-27T00:14:29.234Z,68.21
2023-04-27T00:16:56.993Z,69.44
2023-04-27T00:19:24.663Z,67.84
2023-04-27T00:21:52.424Z,68.92
2023-04-27T00:24:20.035Z,69.47
2023-04-27T00:26:47.673Z,69.42
2023-04-27T00:29:15.651Z,70.66
2023-04-27T00:31:43.561Z,69.30
2023-04-27T00:34:11.206Z,69.66
2023-04-27T00:36:38.878Z,70.44
2023-04-27T00:39:06.662Z,68.90
2023-04-27T00:41:37.891Z,70.43
2023-04-27T00:44:06.011Z,69.42
2023-04-27T00:46:34.335Z,69.75
2023-04-27T00:49:02.826Z,70.79
2023-04-27T00:51:31.405Z,71.01
2023-04-27T00:54:00.201Z,71.73
2023-04-27T00:56:28.049Z,71.69
2023-04-27T00:58:56.040Z,71.67
2023-04-27T01:01:23.733Z,70.79
2023-04-27T01:03:51.785Z,70.24
2023-04-27T01:06:19.703Z,71.82
2023-04-27T01:08:47.370Z,71.11
2023-04-27T01:11:15.359Z,72.32
2023-04-27T01:13:43.118Z,72.25
2023-04-27T01:16:10.731Z,71.95
2023-04-27T01:18:40.735Z,71.84
2023-04-27T01:21:08.483Z,71.80
2023-04-27T01:23:36.667Z,71.17
2023-04-27T01:26:04.593Z,71.34
2023-04-27T01:28:32.258Z,72.32
2023-04-27T01:31:00.052Z,71.85
2023-04-27T01:33:27.676Z,71.61
2023-04-27T01:35:55.551Z,71.42
2023-04-27T01:38:24.338Z,71.44
2023-04-27T01:40:52.199Z,72.22
2023-04-27T01:43:19.861Z,72.15
2023-04-27T01:45:48.671Z,72.17
2023-04-27T01:48:16.740Z,72.49
2023-04-27T01:50:44.394Z,72.23
2023-04-27T01:53:12.163Z,72.65
2023-04-27T01:55:40.031Z,71.36
2023-04-27T01:58:07.788Z,70.79
2023-04-27T02:00:35.463Z,71.50
2023-04-27T02:03:03.561Z,71.57
2023-04-27T02:05:31.472Z,72.40
2023-04-27T02:07:59.237Z,72.59
2023-04-27T02:10:26.871Z,71.17
2023-04-27T02:12:54.690Z,72.36
2023-04-27T02:15:23.011Z,71.77
2023-04-27T02:17:50.784Z,73.18
2023-04-27T02:20:18.591Z,72.79
2023-04-27T02:22:46.240Z,73.07
2023-04-27T02:25:14.417Z,71.47
2023-04-27T02:27:42.101Z,73.08
2023-04-27T02:30:11.866Z,73.09
2023-04-27T02:32:41.404Z,72.10
2023-04-27T02:35:10.153Z,72.96
2023-04-27T02:37:37.887Z,73.19
2023-04-27T02:40:09.601Z,73.76
2023-04-27T02:42:39.108Z,72.47
2023-04-27T02:45:08.246Z,74.41
2023-04-27T02:47:36.252Z,72.17
2023-04-27T02:50:04.742Z,73.17
2023-04-27T02:52:32.411Z,71.93
2023-04-27T02:55:00.108Z,73.02
2023-04-27T02:57:28.155Z,73.27
2023-04-27T02:59:55.839Z,72.82
2023-04-27T03:02:23.720Z,72.28
2023-04-27T03:04:55.436Z,73.26
2023-04-27T03:07:23.117Z,73.55
2023-04-27T03:09:50.968Z,74.70
2023-04-27T03:12:18.689Z,74.21
2023-04-27T03:14:46.372Z,74.22
2023-04-27T03:17:14.041Z,74.47
2023-04-27T03:19:41.906Z,73.42
2023-04-27T03:22:09.563Z,73.25
2023-04-27T03:24:37.338Z,73.63
2023-04-27T03:27:05.004Z,74.64
2023-04-27T03:29:32.761Z,74.62
2023-04-27T03:32:01.077Z,73.88
2023-04-27T03:34:28.734Z,74.02
2023-04-27T03:36:56.971Z,73.55
2023-04-27T03:39:24.688Z,73.37
2023-04-27T03:41:52.394Z,73.59
2023-04-27T03:44:20.016Z,74.00
2023-04-27T03:46:47.619Z,73.61
2023-04-27T03:49:15.373Z,73.58
2023-04-27T03:51:44.190Z,73.82
2023-04-27T03:54:11.815Z,72.57
2023-04-27T03:56:39.538Z,73.64
2023-04-27T03:59:07.258Z,73.25
2023-04-27T04:01:35.028Z,73.39
2023-04-27T04:04:02.924Z,73.11
2023-04-27T04:06:31.202Z,72.72
2023-04-27T04:08:59.028Z,73.31
2023-04-27T04:11:27.631Z,72.94
2023-04-27T04:13:55.501Z,72.67
2023-04-27T04:16:23.358Z,72.93
2023-04-27T04:18:51.512Z,73.19
2023-04-27T04:21:19.142Z,71.99
2023-04-27T04:23:46.803Z,71.82
2023-04-27T04:26:14.993Z,71.53
2023-04-27T04:28:44.312Z,72.60
2023-04-27T04:31:13.565Z,72.15
2023-04-27T04:33:41.372Z,72.14
2023-04-27T04:36:10.989Z,72.24
2023-04-27T04:38:38.878Z,71.93
2023-04-27T04:41:07.437Z,71.86
2023-04-27T04:43:35.084Z,71.75
2023-04-27T04:46:02.829Z,71.82
2023-04-27T04:48:30.501Z,71.98
2023-04-27T04:50:58.199Z,71.88
2023-04-27T04:53:26.389Z,71.90
2023-04-27T04:55:54.120Z,71.86
2023-04-27T04:58:21.768Z,71.85
2023-04-27T05:00:49.470Z,71.80
2023-04-27T05:03:17.513Z,71.81
2023-04-27T05:05:45.583Z,71.91
2023-04-27T05:08:13.386Z,71.69
2023-04-27T05:10:41.119Z,71.61
2023-04-27T05:13:08.873Z,71.30
2023-04-27T05:15:37.582Z,71.48
2023-04-27T05:18:05.391Z,71.68
2023-04-27T05:20:37.677Z,71.53
2023-04-27T05:23:05.580Z,71.53
2023-04-27T05:25:34.649Z,71.40
2023-04-27T05:28:02.305Z,71.24
2023-04-27T05:30:29.945Z,71.52
2023-04-27T05:32:57.565Z,71.37
2023-04-27T05:35:25.237Z,71.19
2023-04-27T05:37:52.956Z,71.16
2023-04-27T05:40:20.615Z,71.42
2023-04-27T05:42:49.207Z,71.19
2023-04-27T05:45:16.948Z,70.75
2023-04-27T05:47:44.640Z,70.70
2023-04-27T05:50:12.591Z,71.01
2023-04-27T05:52:40.790Z,70.95
2023-04-27T05:55:08.736Z,70.61
2023-04-27T05:57:36.446Z,70.55
2023-04-27T06:00:09.266Z,70.15
2023-04-27T06:02:37.088Z,70.44
2023-04-27T06:05:05.599Z,70.79
2023-04-27T06:07:33.618Z,70.64
2023-04-27T06:10:01.354Z,70.39
2023-04-27T06:12:29.075Z,70.42
2023-04-27T06:14:56.728Z,70.25
2023-04-27T06:17:24.445Z,70.19
2023-04-27T06:19:52.201Z,69.98
2023-04-27T06:22:19.967Z,69.95
2023-04-27T06:24:47.863Z,70.08
2023-04-27T06:27:15.690Z,69.79
2023-04-27T06:29:43.377Z,69.33
2023-04-27T06:32:11.225Z,69.50
2023-04-27T06:34:38.925Z,69.79
2023-04-27T06:37:06.668Z,69.17
2023-04-27T06:39:35.398Z,69.18
2023-04-27T06:42:05.909Z,69.42
2023-04-27T06:44:33.627Z,69.05
2023-04-27T06:47:01.300Z,68.65
2023-04-27T06:49:29.059Z,68.74
2023-04-27T06:51:57.321Z,68.81
2023-04-27T06:54:25.194Z,68.79
2023-04-27T06:56:54.808Z,68.91
2023-04-27T06:59:22.527Z,68.45
2023-04-27T07:01:50.298Z,67.67
2023-04-27T07:04:18.320Z,68.42
2023-04-27T07:06:46.388Z,68.01
2023-04-27T07:09:26.450Z,67.87
2023-04-27T07:11:56.023Z,68.17
2023-04-27T07:14:23.886Z,67.00
2023-04-27T07:16:51.659Z,67.01
2023-04-27T07:19:19.541Z,66.16
2023-04-27T07:21:47.381Z,65.77
2023-04-27T07:24:15.121Z,66.19
2023-04-27T07:26:42.813Z,65.67
2023-04-27T07:29:25.737Z,65.71
2023-04-27T07:31:56.109Z,65.72
2023-04-27T07:34:24.183Z,65.73
2023-04-27T07:36:54.466Z,65.36
2023-04-27T07:39:22.483Z,65.56
2023-04-27T07:41:50.353Z,65.60
2023-04-27T07:44:19.110Z,65.26
2023-04-27T07:46:49.009Z,65.13
2023-04-27T07:49:17.050Z,65.04
2023-04-27T07:51:44.912Z,62.76
2023-04-27T07:54:12.642Z,63.66
2023-04-27T07:56:43.134Z,63.66
2023-04-27T07:59:11.445Z,62.61
2023-04-27T08:01:39.406Z,63.09
2023-04-27T08:04:07.340Z,62.89
2023-04-27T08:06:36.192Z,62.57
2023-04-27T08:09:05.393Z,62.59
2023-04-27T08:11:33.166Z,62.40
2023-04-27T08:14:01.228Z,61.65
2023-04-27T08:16:28.964Z,60.29
2023-04-27T08:18:57.549Z,59.52
2023-04-27T08:21:28.465Z,60.00
2023-04-27T08:23:56.784Z,60.47
2023-04-27T08:26:26.290Z,60.58
2023-04-27T08:28:56.360Z,60.36
2023-04-27T08:31:25.378Z,60.07
2023-04-27T08:33:54.114Z,59.48
2023-04-27T08:36:26.336Z,59.40
2023-04-27T08:38:54.125Z,59.08
2023-04-27T08:41:23.524Z,58.58
2023-04-27T08:43:52.093Z,57.84
2023-04-27T08:46:24.009Z,57.62
2023-04-27T08:48:53.015Z,57.39
2023-04-27T08:51:21.866Z,57.69
2023-04-27T08:53:54.633Z,58.18
2023-04-27T08:56:25.250Z,57.84
2023-04-27T08:58:53.157Z,57.99
2023-04-27T09:01:24.645Z,57.71
2023-04-27T09:03:58.736Z,56.68
2023-04-27T09:06:31.970Z,57.26
2023-04-27T09:09:00.889Z,55.59
2023-04-27T09:11:36.718Z,56.17
2023-04-27T09:14:17.033Z,56.36
2023-04-27T09:16:45.172Z,55.40
2023-04-27T09:19:24.466Z,54.89
2023-04-27T09:22:04.410Z,54.35
2023-04-27T09:24:32.129Z,54.31
2023-04-27T09:27:01.095Z,55.20
2023-04-27T09:29:39.081Z,53.94
2023-04-27T09:32:17.704Z,51.39
2023-04-27T09:34:45.778Z,52.86
2023-04-27T09:37:14.759Z,52.95
2023-04-27T09:39:43.017Z,53.04
2023-04-27T09:42:12.694Z,52.30
2023-04-27T09:44:40.719Z,52.59
2023-04-27T09:47:10.758Z,52.31
2023-04-27T09:49:39.005Z,52.70
2023-04-27T09:52:06.971Z,52.87
2023-04-27T09:54:36.612Z,53.29
2023-04-27T09:57:36.192Z,53.15
2023-04-27T10:00:20.616Z,53.42
2023-04-27T10:03:23.738Z,53.99
2023-04-27T10:06:06.855Z,54.09
2023-04-27T10:08:36.141Z,53.98
2023-04-27T10:11:15.406Z,53.40
2023-04-27T10:13:54.809Z,52.81
2023-04-27T10:16:23.243Z,53.32
2023-04-27T10:18:55.446Z,53.48
2023-04-27T10:21:23.938Z,53.98
2023-04-27T10:23:52.470Z,54.14
2023-04-27T10:26:24.491Z,54.03
2023-04-27T10:29:09.184Z,54.03
2023-04-27T10:31:45.213Z,54.74
2023-04-27T10:34:21.169Z,53.98
2023-04-27T10:36:49.217Z,54.25
2023-04-27T10:39:47.086Z,53.72
2023-04-27T10:42:30.542Z,53.66
2023-04-27T10:44:58.641Z,52.75
2023-04-27T10:47:37.611Z,52.37
2023-04-27T10:50:07.770Z,52.83
2023-04-27T10:52:35.605Z,52.65
2023-04-27T10:55:14.870Z,52.77
2023-04-27T10:57:56.018Z,52.53
2023-04-27T11:00:25.534Z,52.64
2023-04-27T11:02:55.033Z,52.18
2023-04-27T11:05:29.513Z,52.44
2023-04-27T11:08:07.330Z,52.69
2023-04-27T11:10:38.378Z,52.39
2023-04-27T11:13:15.019Z,50.39
2023-04-27T11:15:51.138Z,49.61
2023-04-27T11:18:20.636Z,49.84
2023-04-27T11:20:51.056Z,49.79
2023-04-27T11:23:26.320Z,49.67
2023-04-27T11:25:55.194Z,48.90
2023-04-27T11:28:24.439Z,48.82
2023-04-27T11:30:59.723Z,48.65
2023-04-27T11:33:28.408Z,47.74
2023-04-27T11:35:57.522Z,47.65
2023-04-27T11:38:27.651Z,46.80
2023-04-27T11:41:05.955Z,46.66
2023-04-27T11:43:34.630Z,46.81
2023-04-27T11:46:04.446Z,47.01
2023-04-27T11:48:32.802Z,47.38
2023-04-27T11:51:01.319Z,47.63
2023-04-27T11:53:34.014Z,47.96
2023-04-27T11:56:07.878Z,47.95
2023-04-27T11:58:37.486Z,46.93
2023-04-27T12:01:06.974Z,47.41
2023-04-27T12:03:35.378Z,46.25
2023-04-27T12:06:21.544Z,46.12
2023-04-27T12:08:51.485Z,45.89
2023-04-27T12:11:19.551Z,44.70
2023-04-27T12:13:47.310Z,44.57
2023-04-27T12:16:15.692Z,43.93
2023-04-27T12:18:43.732Z,43.02
2023-04-27T12:21:11.710Z,43.11
2023-04-27T12:23:39.394Z,42.67
2023-04-27T12:26:07.343Z,42.69
2023-04-27T12:28:35.162Z,42.46
2023-04-27T12:31:05.210Z,43.22
2023-04-27T12:33:33.099Z,42.39
2023-04-27T12:36:00.956Z,41.98
2023-04-27T12:38:29.349Z,42.21
2023-04-27T12:40:58.921Z,41.96
2023-04-27T12:43:27.102Z,40.87
2023-04-27T12:45:55.010Z,40.23
2023-04-27T12:48:23.682Z,41.17
2023-04-27T12:50:51.628Z,40.84
2023-04-27T12:53:19.518Z,40.90
2023-04-27T12:55:47.602Z,41.82
2023-04-27T12:58:15.842Z,41.76
2023-04-27T13:00:44.211Z,41.06
2023-04-27T13:03:12.276Z,41.66
2023-04-27T13:05:40.199Z,41.44
2023-04-27T13:08:07.889Z,41.79
2023-04-27T13:10:36.754Z,42.11
2023-04-27T13:13:04.516Z,41.56
2023-04-27T13:15:32.361Z,41.54
2023-04-27T13:18:01.948Z,41.68
2023-04-27T13:20:29.796Z,41.88
2023-04-27T13:22:57.518Z,42.30
2023-04-27T13:25:25.479Z,42.45
2023-04-27T13:27:54.115Z,42.09
2023-04-27T13:30:21.861Z,42.07
2023-04-27T13:32:49.590Z,41.47
2023-04-27T13:35:17.284Z,42.25
2023-04-27T13:37:45.541Z,42.53
2023-04-27T13:40:13.646Z,42.29
2023-04-27T13:42:41.824Z,42.59
2023-04-27T13:45:10.539Z,42.79
2023-04-27T13:47:39.993Z,42.66
2023-04-27T13:50:12.235Z,42.74
2023-04-27T13:52:40.661Z,42.72
2023-04-27T13:55:10.557Z,43.24
2023-04-27T13:57:38.323Z,43.22
2023-04-27T14:00:13.167Z,43.30
2023-04-27T14:02:41.386Z,42.97
2023-04-27T14:05:09.436Z,43.07
2023-04-27T14:07:37.268Z,42.76
2023-04-27T14:10:05.881Z,42.98
2023-04-27T14:12:33.924Z,42.95
2023-04-27T14:15:01.566Z,43.00
2023-04-27T14:17:29.987Z,43.01
2023-04-27T14:19:57.825Z,43.02
2023-04-27T14:22:26.372Z,42.15
2023-04-27T14:24:56.790Z,41.70
2023-04-27T14:27:24.711Z,41.31
2023-04-27T14:29:52.474Z,40.92
2023-04-27T14:32:21.425Z,40.58
2023-04-27T14:34:49.375Z,41.36
2023-04-27T14:37:17.716Z,40.95
2023-04-27T14:39:46.507Z,41.17
2023-04-27T14:42:14.458Z,41.90
2023-04-27T14:44:42.539Z,41.25
2023-04-27T14:47:10.828Z,40.63
2023-04-27T14:49:39.095Z,40.40
2023-04-27T14:52:08.471Z,41.70
2023-04-27T14:54:39.045Z,41.66
2023-04-27T14:57:08.183Z,41.89
2023-04-27T14:59:36.316Z,41.66
2023-04-27T15:02:05.000Z,41.97
2023-04-27T15:04:35.665Z,42.37
2023-04-27T15:07:04.744Z,42.44
2023-04-27T15:09:34.396Z,42.80
2023-04-27T15:12:04.246Z,43.07
2023-04-27T15:14:33.506Z,43.19
2023-04-27T15:17:01.473Z,43.44
2023-04-27T15:19:29.646Z,43.40
2023-04-27T15:21:58.021Z,43.54
2023-04-27T15:24:26.098Z,43.80
2023-04-27T15:26:54.608Z,43.99
2023-04-27T15:29:22.912Z,44.21
2023-04-27T15:31:51.163Z,44.31
2023-04-27T15:34:20.678Z,44.67
2023-04-27T15:36:49.098Z,44.32
2023-04-27T15:39:17.042Z,43.94
2023-04-27T15:41:45.275Z,44.55
2023-04-27T15:44:13.399Z,44.75
2023-04-27T15:46:42.014Z,44.54
2023-04-27T15:49:13.026Z,45.00
2023-04-27T15:51:41.416Z,44.82
2023-04-27T15:54:09.372Z,45.39
2023-04-27T15:56:37.475Z,45.42
2023-04-27T15:59:07.291Z,45.17
2023-04-27T16:01:35.968Z,45.99
2023-04-27T16:04:04.497Z,45.77
2023-04-27T16:06:35.893Z,45.95
2023-04-27T16:09:05.068Z,46.21
2023-04-27T16:11:33.826Z,46.33
2023-04-27T16:14:02.297Z,46.30
2023-04-27T16:16:30.658Z,47.20
2023-04-27T16:18:59.964Z,46.98
2023-04-27T16:21:28.795Z,46.84
2023-04-27T16:23:57.858Z,47.32
2023-04-27T16:26:27.835Z,47.19
2023-04-27T16:28:57.777Z,47.17
2023-04-27T16:31:25.930Z,47.33
2023-04-27T16:33:54.520Z,47.06
2023-04-27T16:36:23.394Z,47.31
2023-04-27T16:38:52.057Z,47.12
2023-04-27T16:41:20.987Z,47.35
2023-04-27T16:43:51.138Z,47.19
2023-04-27T16:46:19.480Z,47.16
2023-04-27T16:48:47.713Z,46.77
2023-04-27T16:51:15.770Z,47.11
2023-04-27T16:53:43.875Z,46.90
2023-04-27T16:56:13.717Z,47.19
2023-04-27T16:58:41.837Z,47.24
2023-04-27T17:01:09.586Z,46.88
2023-04-27T17:03:37.530Z,46.73
2023-04-27T17:06:05.539Z,46.48
2023-04-27T17:08:33.641Z,46.62
2023-04-27T17:11:01.684Z,46.79
2023-04-27T17:13:32.970Z,46.98
2023-04-27T17:16:01.948Z,47.00
2023-04-27T17:18:31.916Z,47.13
2023-04-27T17:21:01.144Z,47.22
2023-04-27T17:23:29.812Z,47.33
2023-04-27T17:25:58.621Z,48.05
2023-04-27T17:28:26.683Z,48.06
2023-04-27T17:30:54.324Z,48.37
2023-04-27T17:33:23.319Z,48.68
2023-04-27T17:35:52.727Z,49.64
2023-04-27T17:38:22.050Z,49.71
2023-04-27T17:40:50.931Z,48.86
2023-04-27T17:43:19.310Z,49.15
2023-04-27T17:45:48.262Z,49.02
2023-04-27T17:48:17.343Z,49.39
2023-04-27T17:50:46.196Z,49.52
2023-04-27T17:53:15.791Z,49.78
2023-04-27T17:55:48.222Z,50.26
2023-04-27T17:58:17.386Z,49.76
2023-04-27T18:00:46.534Z,50.21
2023-04-27T18:03:16.967Z,50.03
2023-04-27T18:05:47.006Z,50.02
2023-04-27T18:08:15.608Z,50.47
2023-04-27T18:10:45.619Z,50.52
2023-04-27T18:13:14.080Z,50.37
2023-04-27T18:15:42.966Z,51.41
2023-04-27T18:18:14.035Z,51.09
2023-04-27T18:20:45.479Z,51.71
2023-04-27T18:23:15.337Z,52.50
2023-04-27T18:25:44.695Z,51.85
2023-04-27T18:28:14.020Z,52.65
2023-04-27T18:30:43.390Z,53.55
2023-04-27T18:33:12.696Z,53.87
2023-04-27T18:35:41.524Z,55.72
2023-04-27T18:38:10.712Z,55.22
2023-04-27T18:40:41.143Z,54.62
2023-04-27T18:43:12.605Z,55.53
2023-04-27T18:45:42.379Z,56.30
2023-04-27T18:48:11.452Z,55.99
2023-04-27T18:50:41.728Z,55.16
2023-04-27T18:53:11.679Z,55.73
2023-04-27T18:55:40.322Z,55.75
2023-04-27T18:58:09.174Z,55.55
2023-04-27T19:00:41.797Z,55.71
2023-04-27T19:03:11.291Z,54.90
2023-04-27T19:05:43.331Z,55.80
2023-04-27T19:08:13.132Z,56.15
2023-04-27T19:10:42.855Z,56.47
2023-04-27T19:13:12.560Z,55.63
2023-04-27T19:15:42.927Z,56.62
2023-04-27T19:18:12.895Z,56.45
2023-04-27T19:20:42.797Z,56.14
2023-04-27T19:23:13.317Z,56.33
2023-04-27T19:25:42.264Z,56.57
2023-04-27T19:28:11.109Z,56.08
2023-04-27T19:30:39.618Z,56.33
2023-04-27T19:33:08.308Z,56.38
2023-04-27T19:35:37.440Z,56.60
2023-04-27T19:38:06.954Z,56.32
2023-04-27T19:40:37.161Z,58.04
2023-04-27T19:43:07.290Z,56.95
2023-04-27T19:45:39.115Z,57.91
2023-04-27T19:48:08.414Z,57.14
2023-04-27T19:50:38.664Z,57.80
2023-04-27T19:53:07.550Z,57.27
2023-04-27T19:55:36.551Z,59.01
2023-04-27T19:58:05.465Z,58.36
2023-04-27T20:00:34.986Z,58.79
2023-04-27T20:03:04.092Z,59.61
2023-04-27T20:05:35.738Z,59.25
2023-04-27T20:08:04.761Z,58.69
2023-04-27T20:10:34.318Z,57.96
2023-04-27T20:13:02.720Z,58.35
2023-04-27T20:15:31.218Z,58.84
2023-04-27T20:17:59.360Z,58.79
2023-04-27T20:20:28.407Z,58.67
2023-04-27T20:22:56.886Z,58.98
2023-04-27T20:25:26.095Z,59.43
2023-04-27T20:27:54.650Z,59.76
2023-04-27T20:30:22.869Z,59.95
2023-04-27T20:32:51.342Z,60.08
2023-04-27T20:35:20.324Z,59.54
2023-04-27T20:37:48.667Z,60.33
2023-04-27T20:40:18.300Z,59.66
2023-04-27T20:42:47.093Z,60.07
2023-04-27T20:45:15.550Z,60.66
2023-04-27T20:47:43.949Z,60.15
2023-04-27T20:50:12.674Z,60.55
2023-04-27T20:52:41.760Z,60.04
2023-04-27T20:55:10.492Z,60.68
2023-04-27T20:57:39.499Z,60.49
2023-04-27T21:00:10.132Z,60.71
2023-04-27T21:02:38.938Z,61.32
2023-04-27T21:05:07.758Z,61.41
2023-04-27T21:07:36.407Z,61.44
2023-04-27T21:10:07.098Z,60.68
2023-04-27T21:12:35.996Z,62.05
2023-04-27T21:15:04.732Z,61.70
2023-04-27T21:17:33.562Z,62.91
2023-04-27T21:20:02.398Z,62.17
2023-04-27T21:22:31.008Z,62.75
2023-04-27T21:24:59.368Z,62.34
2023-04-27T21:27:31.705Z,62.12
2023-04-27T21:30:00.068Z,61.79
2023-04-27T21:32:29.306Z,62.27
2023-04-27T21:34:57.744Z,62.68
2023-04-27T21:37:26.550Z,62.92
2023-04-27T21:39:55.024Z,64.50
2023-04-27T21:42:24.810Z,63.45
2023-04-27T21:44:53.093Z,63.56
2023-04-27T21:47:20.987Z,63.53
2023-04-27T21:49:50.594Z,64.11
2023-04-27T21:52:21.896Z,64.75
2023-04-27T21:54:50.175Z,64.26
2023-04-27T21:57:19.932Z,63.98
2023-04-27T21:59:48.835Z,63.82
2023-04-27T22:02:17.846Z,63.99
2023-04-27T22:04:46.690Z,64.31
2023-04-27T22:07:15.029Z,64.68
2023-04-27T22:09:43.980Z,64.42
2023-04-27T22:12:12.737Z,64.50
2023-04-27T22:14:43.554Z,65.37
2023-04-27T22:17:40.034Z,65.13
2023-04-27T22:20:13.142Z,64.61
2023-04-27T22:22:41.564Z,63.97
2023-04-27T22:25:12.043Z,65.55
2023-04-27T22:27:44.879Z,65.48
2023-04-27T22:30:15.764Z,65.91
2023-04-27T22:32:45.492Z,66.60
2023-04-27T22:35:25.504Z,66.29
2023-04-27T22:37:56.685Z,67.18
2023-04-27T22:40:25.727Z,66.34
2023-04-27T22:42:55.908Z,66.90
2023-04-27T22:45:24.879Z,65.75
2023-04-27T22:47:53.055Z,66.30
2023-04-27T22:50:21.867Z,66.57
2023-04-27T22:52:50.277Z,66.10
2023-04-27T22:55:19.631Z,66.41
2023-04-27T22:57:50.215Z,66.77
2023-04-27T23:00:18.505Z,66.21
2023-04-27T23:02:48.360Z,67.39
2023-04-27T23:05:16.941Z,69.03
2023-04-27T23:07:46.976Z,68.54
2023-04-27T23:10:15.553Z,68.85
2023-04-27T23:12:43.965Z,69.01
2023-04-27T23:15:12.719Z,67.71
2023-04-27T23:17:41.753Z,68.47
2023-04-27T23:20:24.558Z,68.98
2023-04-27T23:22:56.526Z,68.61
2023-04-27T23:25:26.206Z,68.92
2023-04-27T23:27:54.639Z,69.12
2023-04-27T23:30:23.796Z,68.89
2023-04-27T23:32:52.161Z,69.61
2023-04-27T23:35:21.198Z,69.22
2023-04-27T23:37:50.445Z,69.48
2023-04-27T23:40:18.963Z,68.82
2023-04-27T23:42:50.823Z,69.22
2023-04-27T23:45:21.144Z,69.71
2023-04-27T23:47:49.925Z,70.09
2023-04-27T23:50:19.097Z,69.65
2023-04-27T23:52:48.233Z,70.41
2023-04-27T23:55:17.238Z,69.77
2023-04-27T23:57:46.453Z,69.58
